»·PEaware :: N102EF KSNA-KSBA

N102EF :: KSNA-KSBA

FLIGHT INFORMATION

Flight Status: Arrived
Operator: Privately registered:
United States
More flights under this callsign
Pilot: Ron R. (25532)
Aircraft: BEECH AIRCRAFT DUKE
(BE60)
More flights by this aircraft type
Origin: KSNA John Wayne-Orange Co
United States
Destination: KSBA Santa Barbara Mun
United States
More flights between these airports :: More routes between these airports
Route: +SLI V23 LAX V299 VTU VTU282R KWANG
File this flight plan on PilotEdge
Remarks:
Altitude:
(Current/Filed)
6,000ft
Speed:
(Current/Filed)
200kts
Departed: 29-Nov-19 09:52 PM
Arrived: 29-Nov-19 10:40 PM
Distance/Time
Traveled:
108nm/0:47
Distance/Time
To Go:
Arrived

Flight Plot

Page will automatically refresh every two minutes.


Map Options




Map Legend


Flown Route
Filed Route
Departure Airport
Arrival Airport
Navaid (VOR, NDB)
Fix

Horizontal Profiles

Position Reports

Time Latitude Longitude Heading Altitude Ground
Speed
29-Nov-19 21:13 33.675694 -117.871617 26 59ft 0kts
29-Nov-19 21:14 33.675694 -117.871617 26 59ft 0kts
29-Nov-19 21:15 33.675694 -117.871617 26 59ft 0kts
29-Nov-19 21:16 33.675694 -117.871617 26 59ft 0kts
29-Nov-19 21:17 33.675694 -117.871617 26 59ft 0kts
29-Nov-19 21:18 33.675694 -117.871617 26 59ft 0kts
29-Nov-19 21:19 33.675694 -117.871617 26 59ft 0kts
29-Nov-19 21:20 33.675694 -117.871617 26 59ft 0kts
29-Nov-19 21:21 33.675694 -117.871617 26 59ft 0kts
29-Nov-19 21:22 33.675694 -117.871617 26 59ft 0kts
29-Nov-19 21:23 33.675694 -117.871617 26 59ft 0kts
29-Nov-19 21:24 33.675694 -117.871617 26 59ft 0kts
29-Nov-19 21:25 33.675696 -117.871616 26 59ft 0kts
29-Nov-19 21:26 33.675699 -117.871614 26 59ft 0kts
29-Nov-19 21:27 33.675701 -117.871613 26 59ft 0kts
29-Nov-19 21:28 33.675704 -117.871611 26 59ft 0kts
29-Nov-19 21:29 33.675707 -117.871609 26 59ft 0kts
29-Nov-19 21:30 33.675710 -117.871608 26 59ft 0kts
29-Nov-19 21:31 33.675713 -117.871606 26 59ft 0kts
29-Nov-19 21:32 33.675715 -117.871604 26 59ft 0kts
29-Nov-19 21:33 33.675718 -117.871603 26 59ft 0kts
29-Nov-19 21:34 33.675721 -117.871601 26 59ft 0kts
29-Nov-19 21:35 33.675724 -117.871600 26 59ft 0kts
29-Nov-19 21:36 33.675726 -117.871598 26 59ft 0kts
29-Nov-19 21:37 33.675729 -117.871596 26 59ft 0kts
29-Nov-19 21:38 33.675732 -117.871595 26 59ft 0kts
29-Nov-19 21:39 33.675735 -117.871593 26 59ft 0kts
29-Nov-19 21:40 33.676080 -117.870831 72 59ft 9kts
29-Nov-19 21:41 33.678337 -117.868924 27 59ft 12kts
29-Nov-19 21:42 33.681213 -117.866822 62 59ft 9kts
29-Nov-19 21:43 33.681140 -117.866602 188 59ft 0kts
29-Nov-19 21:44 33.681138 -117.866602 188 59ft 0kts
29-Nov-19 21:45 33.681132 -117.866603 188 59ft 0kts
29-Nov-19 21:46 33.681129 -117.866604 188 59ft 0kts
29-Nov-19 21:47 33.681127 -117.866604 188 59ft 0kts
29-Nov-19 21:48 33.680794 -117.866350 115 59ft 0kts
29-Nov-19 21:49 33.680793 -117.866348 115 59ft 0kts
29-Nov-19 21:50 33.680282 -117.865932 204 59ft 10kts
29-Nov-19 21:51 33.656213 -117.881546 209 676ft 146kts
29-Nov-19 21:52 33.630482 -117.916454 233 2113ft 141kts
29-Nov-19 21:53 33.604362 -117.952392 232 4013ft 137kts
29-Nov-19 21:54 33.588981 -117.989062 291 5973ft 142kts
29-Nov-19 21:55 33.625939 -118.031080 311 6000ft 202kts
29-Nov-19 21:56 33.663245 -118.078805 309 5996ft 190kts
29-Nov-19 21:57 33.698754 -118.125174 309 5997ft 188kts
29-Nov-19 21:58 33.734163 -118.171383 309 5992ft 188kts
29-Nov-19 21:59 33.769514 -118.217567 309 5990ft 188kts
29-Nov-19 22:00 33.804998 -118.263986 309 5985ft 188kts
29-Nov-19 22:01 33.840313 -118.310245 309 5985ft 187kts
29-Nov-19 22:02 33.875599 -118.356528 309 5993ft 187kts
29-Nov-19 22:03 33.910820 -118.402787 309 5996ft 187kts
29-Nov-19 22:04 33.940398 -118.453005 288 6001ft 184kts
29-Nov-19 22:05 33.958334 -118.511144 289 5997ft 184kts
29-Nov-19 22:06 33.976731 -118.568852 289 5997ft 184kts
29-Nov-19 22:07 33.995105 -118.626573 289 5996ft 184kts
29-Nov-19 22:08 34.013474 -118.684404 289 5996ft 185kts
29-Nov-19 22:09 34.031845 -118.742347 289 5992ft 184kts
29-Nov-19 22:10 34.049080 -118.800540 286 5991ft 184kts
29-Nov-19 22:11 34.064399 -118.859511 286 5990ft 183kts
29-Nov-19 22:12 34.080046 -118.918375 286 5990ft 185kts
29-Nov-19 22:13 34.095853 -118.977640 287 5986ft 183kts
29-Nov-19 22:14 34.110796 -119.033767 287 5986ft 171kts
29-Nov-19 22:15 34.130387 -119.086420 296 5992ft 182kts
29-Nov-19 22:16 34.154188 -119.142859 295 5987ft 188kts
29-Nov-19 22:17 34.177644 -119.198905 295 5987ft 186kts
29-Nov-19 22:18 34.200996 -119.254721 295 5987ft 185kts
29-Nov-19 22:19 34.224250 -119.310349 295 5987ft 185kts
29-Nov-19 22:20 34.247436 -119.365929 295 5988ft 185kts
29-Nov-19 22:21 34.270657 -119.421714 295 5989ft 185kts
29-Nov-19 22:22 34.293795 -119.477389 295 5982ft 185kts
29-Nov-19 22:23 34.315946 -119.531739 293 4733ft 176kts
29-Nov-19 22:24 34.334281 -119.581854 293 3979ft 137kts
29-Nov-19 22:25 34.330036 -119.616380 201 4016ft 150kts
29-Nov-19 22:26 34.283177 -119.625959 192 3991ft 180kts
29-Nov-19 22:27 34.248473 -119.586627 104 3992ft 196kts
29-Nov-19 22:28 34.235651 -119.522163 101 3981ft 197kts
29-Nov-19 22:29 34.265457 -119.481431 348 3981ft 177kts
29-Nov-19 22:30 34.305952 -119.510796 316 3980ft 166kts
29-Nov-19 22:31 34.326462 -119.559109 295 3351ft 161kts
29-Nov-19 22:32 34.345337 -119.607611 294 2347ft 157kts
29-Nov-19 22:33 34.362666 -119.652318 294 2084ft 133kts
29-Nov-19 22:34 34.376947 -119.689136 294 2096ft 115kts
29-Nov-19 22:35 34.390726 -119.725237 293 1946ft 121kts
29-Nov-19 22:36 34.403055 -119.758176 293 1352ft 106kts
29-Nov-19 22:37 34.419083 -119.790774 309 773ft 109kts
29-Nov-19 22:38 34.428133 -119.822568 268 186ft 100kts
29-Nov-19 22:39 34.427631 -119.846310 255 13ft 13kts
29-Nov-19 22:40 34.427144 -119.846811 177 13ft 0kts
29-Nov-19 22:41 34.427141 -119.846811 177 13ft 0kts
29-Nov-19 22:42 34.426694 -119.844101 88 13ft 13kts
29-Nov-19 22:43 34.426775 -119.839505 88 13ft 13kts
29-Nov-19 22:44 34.425507 -119.836824 164 13ft 11kts
29-Nov-19 22:45 34.424507 -119.835972 255 13ft 0kts
29-Nov-19 22:46 34.424507 -119.835973 255 13ft 0kts
29-Nov-19 22:47 34.424507 -119.835973 255 13ft 0kts
29-Nov-19 22:48 34.424507 -119.835973 255 13ft 0kts

Navigation Log

Ident Type
Flight plan parsing failed, navigation log unavailable